Time;durP1;ratioP1;P1;durP2;ratioP2;P2;SDS_P1;SDS_P2;PMS_P1;PMS_P2;Temp;Humidity;BMP_temperature;BMP_pressure;BME280_temperature;BME280_humidity;BME280_pressure;Samples;Min_cycle;Max_cycle;Signal;HPM_P1;HPM_P2
2023/10/26 00:01:33;;;;;;;23.35;20.95;;;9.80;99.10;;;;;;5018240;28;20033;-75
2023/10/26 00:03:59;;;;;;;25.05;22.38;;;9.80;99.20;;;;;;5012023;28;20101;-75
2023/10/26 00:06:25;;;;;;;24.77;22.08;;;9.80;99.20;;;;;;5017980;28;20029;-75
2023/10/26 00:08:51;;;;;;;23.92;21.08;;;9.80;99.10;;;;;;5012536;28;20038;-75
2023/10/26 00:11:17;;;;;;;24.33;20.83;;;9.80;99.10;;;;;;5008558;28;20608;-75
2023/10/26 00:13:42;;;;;;;23.63;21.00;;;9.70;99.20;;;;;;5014568;28;20525;-74
2023/10/26 00:16:08;;;;;;;26.42;21.90;;;9.70;99.20;;;;;;5018979;28;20111;-74
2023/10/26 00:18:33;;;;;;;28.13;23.88;;;9.70;99.20;;;;;;5020175;28;20099;-75
2023/10/26 00:21:00;;;;;;;28.92;24.38;;;9.70;99.20;;;;;;5018353;28;20415;-74
2023/10/26 00:23:26;;;;;;;27.95;24.90;;;9.70;99.30;;;;;;5017123;28;20045;-75
2023/10/26 00:25:52;;;;;;;25.02;22.30;;;9.60;99.30;;;;;;5010251;28;20054;-73
2023/10/26 00:28:17;;;;;;;27.23;23.70;;;9.60;99.30;;;;;;5015182;28;20390;-76
2023/10/26 00:30:43;;;;;;;27.08;24.17;;;9.60;99.40;;;;;;5018743;28;20041;-75
2023/10/26 00:33:08;;;;;;;27.38;24.38;;;9.60;99.40;;;;;;5017857;28;20089;-74
2023/10/26 00:35:34;;;;;;;27.90;24.90;;;9.60;99.30;;;;;;5018559;28;20109;-75
2023/10/26 00:38:00;;;;;;;27.40;24.33;;;9.60;99.40;;;;;;5012002;28;20045;-75
2023/10/26 00:40:25;;;;;;;28.45;24.38;;;9.60;99.40;;;;;;5015346;28;20266;-74
2023/10/26 00:42:51;;;;;;;30.83;26.67;;;9.60;99.40;;;;;;5018068;28;20549;-74
2023/10/26 00:45:18;;;;;;;29.83;26.00;;;9.60;99.40;;;;;;5006657;28;20041;-74
2023/10/26 00:47:44;;;;;;;29.58;26.15;;;9.60;99.40;;;;;;5008845;28;20038;-74
2023/10/26 00:50:10;;;;;;;33.63;30.02;;;9.60;99.40;;;;;;5016995;28;20128;-74
2023/10/26 00:52:38;;;;;;;29.33;26.10;;;9.60;99.40;;;;;;5008677;28;20129;-73
2023/10/26 00:55:08;;;;;;;32.00;28.25;;;9.50;99.30;;;;;;5009198;28;20379;-74
2023/10/26 00:57:35;;;;;;;32.03;28.67;;;9.50;99.40;;;;;;5012635;28;20084;-74
2023/10/26 01:00:02;;;;;;;30.60;27.48;;;9.50;99.30;;;;;;5017453;28;20133;-74
2023/10/26 01:02:29;;;;;;;29.40;26.30;;;9.40;99.20;;;;;;5012187;28;20042;-73
2023/10/26 01:04:54;;;;;;;28.75;25.75;;;9.40;99.20;;;;;;5017075;28;20140;-74
2023/10/26 01:07:20;;;;;;;30.02;26.88;;;9.30;99.20;;;;;;5018855;28;20121;-73
2023/10/26 01:09:47;;;;;;;27.63;24.85;;;9.30;99.20;;;;;;5014548;28;20049;-73
2023/10/26 01:12:13;;;;;;;28.33;25.17;;;9.30;99.20;;;;;;5020768;28;20042;-74
2023/10/26 01:14:39;;;;;;;32.20;27.55;;;9.20;99.20;;;;;;5020445;28;20128;-74
2023/10/26 01:17:05;;;;;;;28.30;25.30;;;9.10;99.20;;;;;;5015701;28;20120;-74
2023/10/26 01:19:37;;;;;;;29.92;26.63;;;9.10;99.30;;;;;;5018762;28;20026;-72
2023/10/26 01:22:03;;;;;;;27.17;24.38;;;9.10;99.30;;;;;;5017259;28;20509;-73
2023/10/26 01:24:28;;;;;;;28.73;24.85;;;9.10;99.30;;;;;;5020664;28;20057;-73
2023/10/26 01:26:54;;;;;;;27.42;24.55;;;9.10;99.30;;;;;;5018173;28;20695;-74
2023/10/26 01:29:20;;;;;;;28.08;24.60;;;9.00;99.40;;;;;;5017819;28;20136;-73
2023/10/26 01:31:45;;;;;;;29.95;26.70;;;9.00;99.40;;;;;;5018833;28;20454;-73
2023/10/26 01:34:11;;;;;;;31.00;26.13;;;9.00;99.40;;;;;;5022236;28;20017;-73
2023/10/26 01:36:36;;;;;;;28.73;25.65;;;9.00;99.50;;;;;;5013522;28;20121;-74
2023/10/26 01:39:02;;;;;;;26.77;23.73;;;8.90;99.40;;;;;;5017264;28;20084;-74
2023/10/26 01:41:32;;;;;;;29.08;26.00;;;9.00;99.50;;;;;;5020160;28;20061;-73
2023/10/26 01:43:59;;;;;;;28.95;25.83;;;8.90;99.50;;;;;;5018128;28;20308;-73
2023/10/26 01:46:25;;;;;;;30.45;27.35;;;8.90;99.50;;;;;;5019222;28;20029;-73
2023/10/26 01:48:50;;;;;;;32.67;29.08;;;8.90;99.50;;;;;;5013004;28;20033;-75
2023/10/26 01:51:16;;;;;;;29.48;26.48;;;8.90;99.50;;;;;;5021042;28;20117;-73
2023/10/26 01:53:42;;;;;;;29.27;25.48;;;8.80;99.40;;;;;;5013969;28;20101;-75
2023/10/26 01:56:08;;;;;;;30.50;26.60;;;8.80;99.50;;;;;;5018911;28;20034;-74
2023/10/26 01:58:34;;;;;;;31.60;27.85;;;8.80;99.40;;;;;;5014467;28;20045;-75
2023/10/26 02:01:00;;;;;;;30.33;27.13;;;8.70;99.40;;;;;;5017246;28;20065;-74
2023/10/26 02:03:25;;;;;;;28.45;25.42;;;8.70;99.40;;;;;;5012568;28;20371;-74
2023/10/26 02:05:51;;;;;;;29.50;26.23;;;8.70;99.40;;;;;;5021359;28;20033;-74
2023/10/26 02:08:16;;;;;;;31.58;27.90;;;8.70;99.40;;;;;;5019607;28;20514;-74
2023/10/26 02:10:42;;;;;;;32.10;26.98;;;8.60;99.40;;;;;;5020561;28;20052;-75
2023/10/26 02:13:08;;;;;;;27.80;24.85;;;8.60;99.50;;;;;;5020899;28;20172;-74
2023/10/26 02:15:33;;;;;;;27.77;24.90;;;8.60;99.50;;;;;;5017073;28;20029;-75
2023/10/26 02:17:59;;;;;;;30.38;26.20;;;8.60;99.50;;;;;;5015651;28;20040;-75
2023/10/26 02:20:24;;;;;;;31.25;27.95;;;8.60;99.50;;;;;;5020549;28;20708;-74
2023/10/26 02:22:50;;;;;;;30.05;26.95;;;8.60;99.50;;;;;;5018953;28;20041;-75
2023/10/26 02:25:16;;;;;;;29.45;26.38;;;8.60;99.60;;;;;;5021638;28;20320;-74
2023/10/26 02:27:41;;;;;;;29.25;25.35;;;8.60;99.60;;;;;;5016759;28;20124;-75
2023/10/26 02:30:07;;;;;;;28.77;25.67;;;8.70;99.60;;;;;;5017655;28;20083;-75
2023/10/26 02:32:34;;;;;;;29.42;25.15;;;8.70;99.60;;;;;;5017489;28;20140;-75
2023/10/26 02:34:59;;;;;;;28.52;24.20;;;8.70;99.60;;;;;;5019527;28;20052;-75
2023/10/26 02:37:25;;;;;;;28.90;25.77;;;8.70;99.50;;;;;;5013682;28;20022;-75
2023/10/26 02:39:50;;;;;;;32.28;28.77;;;8.70;99.50;;;;;;5034567;28;20060;-76
2023/10/26 02:42:16;;;;;;;31.63;27.42;;;8.80;99.50;;;;;;5017839;28;20523;-75
2023/10/26 02:44:42;;;;;;;34.10;29.77;;;8.80;99.40;;;;;;5014367;28;20164;-74
2023/10/26 02:47:07;;;;;;;37.17;32.15;;;8.80;99.50;;;;;;5016081;28;20037;-74
2023/10/26 02:49:33;;;;;;;35.53;31.70;;;8.80;99.50;;;;;;5019711;28;20086;-76
2023/10/26 02:51:59;;;;;;;35.10;29.10;;;8.80;99.50;;;;;;5013450;28;20352;-74
2023/10/26 02:54:27;;;;;;;34.72;30.92;;;8.80;99.50;;;;;;5016625;28;20033;-74
2023/10/26 02:56:53;;;;;;;35.42;30.05;;;8.90;99.50;;;;;;5013811;28;20112;-75
2023/10/26 02:59:19;;;;;;;37.05;31.33;;;8.90;99.50;;;;;;5014195;28;20029;-74
2023/10/26 03:01:45;;;;;;;35.30;31.23;;;8.90;99.60;;;;;;5016624;28;20039;-74
2023/10/26 03:04:11;;;;;;;35.42;30.90;;;9.00;99.60;;;;;;5014523;28;20029;-74
2023/10/26 03:06:40;;;;;;;33.35;29.75;;;9.00;99.60;;;;;;5014494;28;20112;-74
2023/10/26 03:09:08;;;;;;;32.20;27.65;;;9.00;99.60;;;;;;5015840;28;20076;-74
2023/10/26 03:11:34;;;;;;;33.22;27.20;;;9.00;99.60;;;;;;5015764;28;20041;-74
2023/10/26 03:14:00;;;;;;;35.35;28.55;;;9.10;99.60;;;;;;5011452;28;20033;-74
2023/10/26 03:16:26;;;;;;;36.47;28.02;;;9.10;99.50;;;;;;5017794;28;20076;-73
2023/10/26 03:18:52;;;;;;;30.48;25.63;;;9.10;99.60;;;;;;5019990;28;20033;-74
2023/10/26 03:21:20;;;;;;;31.40;27.05;;;9.10;99.50;;;;;;5019064;28;20379;-74
2023/10/26 03:23:55;;;;;;;33.08;25.60;;;9.10;99.50;;;;;;5020301;28;20242;-74
2023/10/26 03:26:20;;;;;;;;;;;9.10;99.40;;;;;;5019313;28;20056;-74
2023/10/26 03:28:49;;;;;;;30.17;24.73;;;9.10;99.50;;;;;;5019952;28;20481;-74
2023/10/26 03:31:15;;;;;;;28.20;23.63;;;9.10;99.40;;;;;;5012680;28;20095;-74
2023/10/26 03:33:40;;;;;;;28.05;24.38;;;9.10;99.50;;;;;;5017250;28;20037;-74
2023/10/26 03:36:17;;;;;;;31.17;24.45;;;9.10;99.50;;;;;;5014921;28;20068;-74
2023/10/26 03:38:44;;;;;;;25.88;21.50;;;9.10;99.50;;;;;;5016656;28;20330;-74
2023/10/26 03:41:09;;;;;;;32.55;23.77;;;9.10;99.50;;;;;;5017698;28;20071;-74
2023/10/26 03:43:35;;;;;;;31.38;23.85;;;9.10;99.60;;;;;;5020436;28;20030;-74
2023/10/26 03:46:01;;;;;;;34.33;24.92;;;9.10;99.50;;;;;;5019182;28;20379;-74
2023/10/26 03:48:27;;;;;;;36.67;27.45;;;9.10;99.60;;;;;;5016127;28;20148;-74
2023/10/26 03:50:52;;;;;;;44.42;29.30;;;9.20;99.60;;;;;;5021515;28;20418;-74
2023/10/26 03:53:18;;;;;;;43.30;30.58;;;9.30;99.70;;;;;;5018765;28;20044;-74
2023/10/26 03:55:44;;;;;;;49.78;32.88;;;9.40;99.80;;;;;;5014575;28;20034;-75
2023/10/26 03:58:12;;;;;;;43.00;30.35;;;9.50;99.80;;;;;;5015783;28;20049;-74
2023/10/26 04:00:38;;;;;;;43.17;31.17;;;9.60;99.80;;;;;;5014544;28;20038;-75
2023/10/26 04:03:03;;;;;;;45.60;30.27;;;9.60;99.80;;;;;;5016684;28;20042;-75
2023/10/26 04:05:29;;;;;;;43.60;30.00;;;9.60;99.70;;;;;;5017042;28;20046;-72
2023/10/26 04:07:56;;;;;;;44.22;30.10;;;9.60;99.70;;;;;;5015295;28;20042;-75
2023/10/26 04:10:22;;;;;;;41.60;28.40;;;9.60;99.70;;;;;;5020241;28;20107;-73
2023/10/26 04:12:48;;;;;;;40.97;28.17;;;9.60;99.70;;;;;;5016301;28;20030;-75
2023/10/26 04:15:13;;;;;;;38.80;27.77;;;9.60;99.70;;;;;;5017069;28;20453;-75
2023/10/26 04:17:39;;;;;;;40.05;27.92;;;9.60;99.70;;;;;;5016948;28;20045;-74
2023/10/26 04:20:07;;;;;;;35.60;26.83;;;9.60;99.70;;;;;;5019157;28;20046;-75
2023/10/26 04:22:33;;;;;;;39.10;28.98;;;9.60;99.70;;;;;;5014969;28;20195;-75
2023/10/26 04:24:59;;;;;;;37.70;27.85;;;9.60;99.70;;;;;;5010535;28;20377;-74
2023/10/26 04:27:25;;;;;;;34.42;26.67;;;9.60;99.70;;;;;;5016979;28;20048;-74
2023/10/26 04:29:50;;;;;;;34.88;26.75;;;9.60;99.70;;;;;;5018483;28;20042;-74
2023/10/26 04:32:16;;;;;;;34.65;27.40;;;9.70;99.80;;;;;;5013093;28;20036;-74
2023/10/26 04:34:44;;;;;;;34.97;25.73;;;9.70;99.60;;;;;;5016390;28;20447;-74
2023/10/26 04:37:10;;;;;;;35.20;26.38;;;9.70;99.60;;;;;;5018122;28;20481;-73
2023/10/26 04:39:36;;;;;;;31.88;25.40;;;9.70;99.70;;;;;;5020665;28;20658;-74
2023/10/26 04:42:03;;;;;;;33.30;26.08;;;9.60;99.60;;;;;;5017306;28;20037;-74
2023/10/26 04:44:29;;;;;;;33.38;25.38;;;9.70;99.60;;;;;;5015122;28;20649;-74
2023/10/26 04:46:54;;;;;;;33.28;26.88;;;9.60;99.60;;;;;;5015358;28;20038;-73
2023/10/26 04:49:20;;;;;;;36.85;25.95;;;9.70;99.60;;;;;;5014508;28;20040;-74
2023/10/26 04:51:45;;;;;;;33.20;24.27;;;9.70;99.60;;;;;;5012735;28;20573;-74
2023/10/26 04:54:11;;;;;;;32.75;25.80;;;9.70;99.50;;;;;;5015562;28;20459;-75
2023/10/26 04:56:37;;;;;;;33.58;25.38;;;9.60;99.40;;;;;;5019997;28;20104;-74
2023/10/26 04:59:02;;;;;;;30.13;24.33;;;9.60;99.40;;;;;;5018051;28;20017;-74
2023/10/26 05:01:28;;;;;;;32.00;24.60;;;9.60;99.40;;;;;;5016346;28;20033;-74
2023/10/26 05:03:53;;;;;;;30.45;23.90;;;9.50;99.30;;;;;;5014515;28;20133;-73
2023/10/26 05:06:19;;;;;;;29.33;23.83;;;9.40;99.20;;;;;;5015603;28;20076;-74
2023/10/26 05:08:46;;;;;;;30.52;24.15;;;9.30;99.20;;;;;;5022266;28;20029;-74
2023/10/26 05:11:12;;;;;;;31.98;25.15;;;9.30;99.20;;;;;;5019292;28;20576;-74
2023/10/26 05:13:38;;;;;;;33.72;26.40;;;9.20;99.20;;;;;;5017447;28;20109;-75
2023/10/26 05:16:04;;;;;;;33.00;26.25;;;9.20;99.30;;;;;;5019479;28;20310;-75
2023/10/26 05:18:29;;;;;;;33.17;25.85;;;9.10;99.30;;;;;;5014105;28;20380;-74
2023/10/26 05:20:55;;;;;;;36.42;27.80;;;9.00;99.30;;;;;;5018243;28;20100;-74
2023/10/26 05:23:21;;;;;;;31.75;25.92;;;9.00;99.40;;;;;;5016343;28;20045;-73
2023/10/26 05:25:48;;;;;;;36.22;27.67;;;9.00;99.40;;;;;;5022426;28;20053;-75
2023/10/26 05:28:14;;;;;;;32.88;25.48;;;9.00;99.50;;;;;;5019460;28;20415;-74
2023/10/26 05:30:40;;;;;;;34.47;26.08;;;9.00;99.60;;;;;;5018860;28;20030;-74
2023/10/26 05:33:06;;;;;;;34.80;25.08;;;8.90;99.50;;;;;;5019656;28;20386;-74
2023/10/26 05:35:32;;;;;;;38.10;25.75;;;8.90;99.60;;;;;;5020465;28;20036;-73
2023/10/26 05:37:57;;;;;;;33.65;26.50;;;8.90;99.60;;;;;;5015290;28;20124;-75
2023/10/26 05:40:23;;;;;;;32.08;24.98;;;8.90;99.60;;;;;;5019231;28;20037;-73
2023/10/26 05:42:49;;;;;;;34.80;26.83;;;8.90;99.60;;;;;;5018882;28;20636;-74
2023/10/26 05:45:15;;;;;;;32.60;25.25;;;8.90;99.60;;;;;;5017675;28;20026;-75
2023/10/26 05:47:41;;;;;;;33.65;25.45;;;8.80;99.60;;;;;;5018295;28;20179;-74
2023/10/26 05:50:07;;;;;;;31.77;25.23;;;8.80;99.60;;;;;;5013874;28;20041;-75
2023/10/26 05:52:33;;;;;;;31.75;24.83;;;8.80;99.60;;;;;;5016598;28;20029;-75
2023/10/26 05:54:59;;;;;;;33.42;24.63;;;8.80;99.60;;;;;;5019803;28;20047;-73
2023/10/26 05:57:27;;;;;;;32.97;25.83;;;8.80;99.60;;;;;;5017310;28;20475;-73
2023/10/26 05:59:53;;;;;;;35.63;25.92;;;8.80;99.70;;;;;;5013354;28;20646;-74
2023/10/26 06:02:19;;;;;;;32.70;24.23;;;8.80;99.70;;;;;;5015724;28;20096;-74
2023/10/26 06:04:44;;;;;;;33.13;25.38;;;8.80;99.70;;;;;;5011447;28;20518;-74
2023/10/26 06:07:10;;;;;;;33.33;26.00;;;8.70;99.70;;;;;;5018361;28;20544;-75
2023/10/26 06:09:36;;;;;;;31.70;25.20;;;8.70;99.70;;;;;;5018829;28;20521;-75
2023/10/26 06:12:01;;;;;;;33.17;24.05;;;8.70;99.70;;;;;;5016313;28;20339;-75
2023/10/26 06:14:27;;;;;;;33.20;25.30;;;8.70;99.70;;;;;;5017325;28;20079;-73
2023/10/26 06:16:53;;;;;;;29.27;23.83;;;8.70;99.70;;;;;;5015737;28;20042;-73
2023/10/26 06:19:18;;;;;;;31.00;24.73;;;8.70;99.70;;;;;;5019135;28;20025;-73
2023/10/26 06:21:44;;;;;;;33.85;24.20;;;8.70;99.70;;;;;;5018910;28;20029;-73
2023/10/26 06:24:10;;;;;;;32.10;23.35;;;8.70;99.70;;;;;;5019749;28;20037;-72
2023/10/26 06:26:35;;;;;;;30.75;23.63;;;8.60;99.70;;;;;;5013687;28;20506;-72
2023/10/26 06:29:01;;;;;;;30.52;23.88;;;8.70;99.70;;;;;;5019181;28;20041;-73
2023/10/26 06:31:27;;;;;;;31.63;23.83;;;8.60;99.70;;;;;;5015888;28;20403;-73
2023/10/26 06:33:52;;;;;;;29.80;23.50;;;8.70;99.70;;;;;;5017023;28;20367;-72
2023/10/26 06:36:18;;;;;;;28.00;22.33;;;8.60;99.70;;;;;;5015945;28;20045;-73
2023/10/26 06:38:44;;;;;;;29.20;22.73;;;8.70;99.70;;;;;;5020882;28;20464;-73
2023/10/26 06:41:10;;;;;;;28.08;21.42;;;8.60;99.60;;;;;;5018664;28;20029;-72
2023/10/26 06:43:37;;;;;;;27.75;22.48;;;8.70;99.60;;;;;;5013584;28;20030;-74
2023/10/26 06:46:03;;;;;;;28.50;22.75;;;8.70;99.60;;;;;;5012761;28;20052;-73
2023/10/26 06:48:29;;;;;;;32.22;23.48;;;8.60;99.60;;;;;;5013608;28;20029;-72
2023/10/26 06:51:00;;;;;;;29.25;22.45;;;8.60;99.60;;;;;;5013749;28;20054;-73
2023/10/26 06:53:26;;;;;;;33.15;24.42;;;8.60;99.60;;;;;;5017095;28;20061;-74
2023/10/26 06:55:52;;;;;;;31.45;23.33;;;8.70;99.60;;;;;;5014656;28;20176;-72
2023/10/26 06:58:18;;;;;;;31.15;23.55;;;8.70;99.70;;;;;;5012987;28;20136;-72
2023/10/26 07:00:44;;;;;;;34.15;23.75;;;8.70;99.60;;;;;;5014942;28;20200;-72
2023/10/26 07:03:10;;;;;;;27.95;21.80;;;8.70;99.70;;;;;;5017733;28;20033;-74
2023/10/26 07:05:35;;;;;;;28.85;21.60;;;8.80;99.70;;;;;;5014441;28;20398;-73
2023/10/26 07:08:01;;;;;;;33.53;23.83;;;8.90;99.70;;;;;;5017151;28;20092;-72
2023/10/26 07:10:27;;;;;;;29.20;22.85;;;8.90;99.60;;;;;;5020335;28;20061;-73
2023/10/26 07:12:52;;;;;;;30.63;23.60;;;8.90;99.60;;;;;;5017931;28;20029;-73
2023/10/26 07:15:18;;;;;;;30.85;23.65;;;8.90;99.50;;;;;;5015701;28;20075;-73
2023/10/26 07:17:44;;;;;;;30.77;23.08;;;8.90;99.50;;;;;;5019764;28;20061;-73
2023/10/26 07:20:12;;;;;;;28.75;22.77;;;8.90;99.40;;;;;;5017691;28;20050;-72
2023/10/26 07:22:39;;;;;;;29.83;22.50;;;9.00;99.40;;;;;;5020680;28;20025;-72
2023/10/26 07:25:06;;;;;;;31.02;23.05;;;9.00;99.40;;;;;;5016846;28;20052;-74
2023/10/26 07:27:31;;;;;;;31.60;23.17;;;9.10;99.40;;;;;;5016265;28;20541;-73
2023/10/26 07:29:59;;;;;;;27.17;21.80;;;9.10;99.30;;;;;;5014146;28;20052;-73
2023/10/26 07:32:26;;;;;;;28.90;20.40;;;9.10;99.20;;;;;;5012264;28;20053;-73
2023/10/26 07:34:52;;;;;;;28.90;19.50;;;9.10;99.20;;;;;;5017120;28;20434;-72
2023/10/26 07:37:17;;;;;;;26.13;19.92;;;9.10;99.20;;;;;;5015414;28;20037;-72
2023/10/26 07:39:43;;;;;;;29.13;21.83;;;9.20;99.10;;;;;;5017593;28;20045;-72
2023/10/26 07:42:09;;;;;;;27.00;20.02;;;9.20;99.10;;;;;;5014828;28;20041;-73
2023/10/26 07:44:37;;;;;;;28.30;20.27;;;9.20;99.00;;;;;;5014525;28;20195;-73
2023/10/26 07:47:03;;;;;;;37.97;23.42;;;9.20;99.10;;;;;;5014814;28;20037;-73
2023/10/26 07:49:29;;;;;;;33.38;23.25;;;9.30;99.10;;;;;;5012258;28;20044;-72
2023/10/26 07:51:55;;;;;;;32.35;23.15;;;9.30;99.10;;;;;;5013824;28;20456;-73
2023/10/26 07:54:20;;;;;;;32.40;21.60;;;9.40;99.10;;;;;;5016776;28;20112;-73
2023/10/26 07:56:46;;;;;;;33.40;22.75;;;9.30;99.00;;;;;;5012146;28;20462;-73
2023/10/26 07:59:12;;;;;;;32.90;22.90;;;9.40;99.00;;;;;;5016316;28;20033;-73
2023/10/26 08:01:37;;;;;;;37.67;24.52;;;9.40;98.90;;;;;;5029611;28;20824;-73
2023/10/26 08:04:03;;;;;;;35.05;23.20;;;9.40;98.90;;;;;;5012890;28;20053;-74
2023/10/26 08:06:28;;;;;;;36.15;23.73;;;9.30;98.90;;;;;;5015002;28;20156;-72
2023/10/26 08:08:54;;;;;;;37.60;23.08;;;9.30;98.90;;;;;;5011589;28;20037;-72
2023/10/26 08:11:20;;;;;;;35.90;23.13;;;9.30;98.90;;;;;;5014736;28;20037;-73
2023/10/26 08:13:46;;;;;;;38.78;25.25;;;9.40;99.00;;;;;;5020909;28;20022;-74
2023/10/26 08:16:11;;;;;;;38.80;24.33;;;9.40;99.00;;;;;;5017009;28;20046;-71
2023/10/26 08:18:38;;;;;;;36.67;23.83;;;9.50;99.00;;;;;;5013878;28;20038;-73
2023/10/26 08:21:05;;;;;;;39.55;24.65;;;9.50;99.00;;;;;;5021031;28;20473;-73
2023/10/26 08:23:32;;;;;;;42.15;25.17;;;9.60;99.00;;;;;;5021737;28;20056;-73
2023/10/26 08:26:08;;;;;;;45.03;26.38;;;9.60;99.00;;;;;;5013145;28;20136;-73
2023/10/26 08:28:37;;;;;;;45.55;25.40;;;9.60;99.10;;;;;;5016383;28;20509;-75
2023/10/26 08:31:03;;;;;;;41.22;24.77;;;9.60;99.00;;;;;;5015186;28;20038;-74
2023/10/26 08:33:30;;;;;;;43.00;25.00;;;9.70;99.00;;;;;;5020516;28;20049;-74
2023/10/26 08:35:56;;;;;;;43.42;25.10;;;9.70;99.00;;;;;;5012604;28;20682;-73
2023/10/26 08:38:23;;;;;;;37.60;23.75;;;9.70;99.00;;;;;;5015238;28;20095;-74
2023/10/26 08:40:52;;;;;;;39.20;24.75;;;9.80;99.00;;;;;;5021570;28;20079;-74
2023/10/26 08:43:19;;;;;;;37.17;23.23;;;10.00;99.20;;;;;;5022115;28;20505;-74
2023/10/26 08:45:46;;;;;;;37.55;23.65;;;10.10;99.20;;;;;;5017237;28;20034;-73
2023/10/26 08:48:16;;;;;;;38.45;23.40;;;10.30;99.30;;;;;;5020993;28;20657;-74
2023/10/26 08:50:42;;;;;;;36.20;23.13;;;10.60;99.50;;;;;;5017431;28;20052;-74
2023/10/26 08:53:09;;;;;;;32.40;20.80;;;10.90;99.30;;;;;;5019687;28;20455;-73
2023/10/26 08:55:38;;;;;;;32.13;21.55;;;11.10;98.90;;;;;;5018130;28;20136;-74
2023/10/26 08:58:03;;;;;;;30.63;20.45;;;11.20;98.30;;;;;;5017111;28;20033;-74
2023/10/26 09:00:30;;;;;;;30.70;19.70;;;11.40;98.00;;;;;;5020000;28;20398;-74
2023/10/26 09:02:56;;;;;;;25.55;18.55;;;11.60;98.10;;;;;;5014456;28;20038;-74
2023/10/26 09:05:22;;;;;;;28.13;18.95;;;11.60;96.90;;;;;;5020488;28;20702;-74
2023/10/26 09:07:51;;;;;;;20.85;15.65;;;11.70;96.60;;;;;;5019026;28;20037;-72
2023/10/26 09:10:28;;;;;;;20.25;14.60;;;11.70;96.40;;;;;;5017834;28;20061;-74
2023/10/26 09:13:01;;;;;;;19.70;14.85;;;11.60;96.20;;;;;;5017269;28;20054;-73
2023/10/26 09:15:28;;;;;;;19.02;14.68;;;11.60;96.20;;;;;;5020958;28;20072;-72
2023/10/26 09:18:00;;;;;;;20.52;14.43;;;11.80;96.70;;;;;;5018426;28;20125;-72
2023/10/26 09:20:26;;;;;;;17.85;13.73;;;11.90;96.20;;;;;;5018011;28;20029;-72
2023/10/26 09:22:52;;;;;;;20.02;13.90;;;11.90;96.20;;;;;;5017897;28;20043;-74
2023/10/26 09:25:18;;;;;;;16.65;13.10;;;12.00;95.90;;;;;;5018554;28;20030;-72
2023/10/26 09:27:48;;;;;;;15.93;12.00;;;12.00;95.60;;;;;;5022021;28;20099;-73
2023/10/26 09:30:25;;;;;;;17.67;13.15;;;12.10;95.80;;;;;;5018477;28;20069;-74
2023/10/26 09:32:51;;;;;;;16.20;12.98;;;12.20;95.80;;;;;;5011179;28;20041;-73
2023/10/26 09:35:35;;;;;;;18.30;13.85;;;12.20;95.50;;;;;;5018315;28;20057;-72
2023/10/26 09:38:00;;;;;;;17.17;12.52;;;12.20;95.30;;;;;;5017354;28;20052;-73
2023/10/26 09:40:27;;;;;;;15.82;13.10;;;12.30;95.10;;;;;;5017593;28;20046;-72
2023/10/26 09:42:56;;;;;;;17.13;13.60;;;12.30;94.90;;;;;;5017010;28;20033;-74
2023/10/26 09:45:22;;;;;;;15.88;12.15;;;12.20;95.10;;;;;;5016786;28;20069;-72
2023/10/26 09:47:47;;;;;;;15.63;12.32;;;12.10;94.90;;;;;;5013755;28;20394;-72
2023/10/26 09:50:13;;;;;;;15.75;12.68;;;12.10;95.20;;;;;;5016929;28;20037;-73
2023/10/26 09:52:42;;;;;;;16.63;12.27;;;11.90;95.40;;;;;;5016324;28;20537;-74
2023/10/26 09:55:10;;;;;;;19.30;14.55;;;12.00;95.70;;;;;;5028517;28;20060;-73
2023/10/26 09:57:41;;;;;;;19.73;11.75;;;12.00;95.70;;;;;;5014701;28;20315;-73
2023/10/26 10:00:10;;;;;;;15.23;12.23;;;11.90;95.70;;;;;;5013526;28;20033;-72
2023/10/26 10:02:36;;;;;;;14.98;11.82;;;11.90;96.10;;;;;;5018520;28;20313;-73
2023/10/26 10:05:02;;;;;;;19.92;13.00;;;11.90;96.30;;;;;;5021485;28;20099;-73
2023/10/26 10:07:44;;;;;;;16.55;12.88;;;11.90;96.40;;;;;;5016694;28;20029;-74
2023/10/26 10:10:11;;;;;;;15.68;12.40;;;12.00;96.50;;;;;;5019952;28;20486;-73
2023/10/26 10:12:38;;;;;;;14.20;11.40;;;12.00;96.60;;;;;;5016406;28;20070;-71
2023/10/26 10:15:09;;;;;;;15.73;12.50;;;12.00;96.70;;;;;;5008693;28;20135;-73
2023/10/26 10:17:44;;;;;;;16.45;12.70;;;12.00;96.80;;;;;;5012990;28;20478;-72
2023/10/26 10:20:18;;;;;;;;;;;12.10;96.80;;;;;;5021291;28;20046;-72
2023/10/26 10:22:44;;;;;;;16.92;12.07;;;12.00;96.60;;;;;;5014277;28;19913;-73
2023/10/26 10:25:10;;;;;;;17.42;12.23;;;12.00;96.80;;;;;;5021092;28;20041;-73
2023/10/26 10:27:37;;;;;;;16.83;13.25;;;12.00;97.00;;;;;;5013874;28;20410;-72
2023/10/26 10:30:09;;;;;;;17.67;13.25;;;12.10;97.20;;;;;;5015574;28;20038;-72
2023/10/26 10:32:56;;;;;;;18.70;13.18;;;12.10;97.30;;;;;;5019260;28;20031;-72
2023/10/26 10:35:21;;;;;;;18.60;14.05;;;12.10;97.30;;;;;;5032090;28;20148;-72
2023/10/26 10:38:24;;;;;;;18.95;14.40;;;12.10;97.30;;;;;;5017036;28;20045;-72
2023/10/26 10:40:57;;;;;;;21.55;15.18;;;12.20;97.40;;;;;;5020924;28;20033;-71
2023/10/26 10:43:37;;;;;;;19.05;14.45;;;12.20;97.30;;;;;;5015277;28;20048;-75
2023/10/26 10:46:17;;;;;;;22.27;15.80;;;12.30;97.40;;;;;;5015918;28;20057;-74
2023/10/26 10:48:58;;;;;;;21.65;15.95;;;12.30;97.20;;;;;;5014892;28;20069;-74
2023/10/26 10:51:44;;;;;;;20.90;16.80;;;12.40;97.30;;;;;;5009920;28;20038;-73
2023/10/26 10:54:12;;;;;;;20.85;15.32;;;12.50;97.50;;;;;;5020423;28;20237;-73
2023/10/26 10:56:43;;;;;;;20.50;15.90;;;12.50;97.20;;;;;;5014933;28;20069;-74
2023/10/26 10:59:25;;;;;;;21.55;16.27;;;12.60;97.30;;;;;;5011941;28;20021;-74
2023/10/26 11:02:06;;;;;;;20.70;15.23;;;12.70;96.90;;;;;;5014682;28;20033;-73
2023/10/26 11:04:32;;;;;;;18.75;13.82;;;12.60;96.70;;;;;;5015443;28;20032;-73
2023/10/26 11:06:58;;;;;;;19.67;13.93;;;12.60;96.60;;;;;;5033998;28;20029;-74
2023/10/26 11:09:38;;;;;;;16.63;13.27;;;12.60;96.60;;;;;;5017386;28;20196;-74
2023/10/26 11:12:11;;;;;;;19.20;14.38;;;12.60;96.60;;;;;;5020587;28;20034;-75
2023/10/26 11:14:49;;;;;;;16.83;12.43;;;12.60;96.70;;;;;;5019700;28;20025;-73
2023/10/26 11:17:22;;;;;;;14.57;10.93;;;12.60;96.80;;;;;;5017093;28;20044;-74
2023/10/26 11:19:49;;;;;;;15.23;11.20;;;12.60;96.70;;;;;;5015705;28;20478;-72
2023/10/26 11:22:15;;;;;;;12.48;8.90;;;12.60;96.80;;;;;;5012154;28;20038;-72
2023/10/26 11:24:42;;;;;;;12.27;9.00;;;12.60;96.90;;;;;;5016450;28;20502;-72
2023/10/26 11:27:12;;;;;;;14.63;11.05;;;12.60;96.70;;;;;;5017006;28;20161;-74
2023/10/26 11:29:42;;;;;;;14.95;10.45;;;12.60;96.80;;;;;;5014166;28;20030;-72
2023/10/26 11:32:24;;;;;;;15.13;11.05;;;12.60;96.70;;;;;;5016776;28;20763;-72
2023/10/26 11:35:02;;;;;;;15.85;10.50;;;12.60;96.90;;;;;;5015869;28;20033;-74
2023/10/26 11:37:27;;;;;;;13.20;8.80;;;12.80;96.90;;;;;;5016669;28;20040;-74
2023/10/26 11:39:54;;;;;;;11.35;7.30;;;12.80;96.80;;;;;;5019527;28;20041;-71
2023/10/26 11:42:40;;;;;;;9.88;7.03;;;13.00;96.80;;;;;;5015215;28;20080;-73
2023/10/26 11:45:06;;;;;;;9.57;5.65;;;13.10;96.80;;;;;;5015661;28;20042;-74
2023/10/26 11:48:12;;;;;;;8.23;5.40;;;13.20;96.50;;;;;;5011203;28;20084;-75
2023/10/26 11:50:38;;;;;;;6.95;4.90;;;13.30;96.40;;;;;;5030702;28;20055;-74
2023/10/26 11:53:04;;;;;;;7.65;5.03;;;13.50;96.10;;;;;;5019377;28;20029;-75
2023/10/26 11:55:32;;;;;;;8.10;4.93;;;13.60;96.00;;;;;;5013466;28;20033;-73
2023/10/26 11:57:59;;;;;;;6.72;4.15;;;13.70;95.80;;;;;;5010356;28;20045;-73
2023/10/26 12:00:26;;;;;;;7.28;4.63;;;13.80;95.60;;;;;;5018482;28;20711;-74
2023/10/26 12:02:56;;;;;;;6.97;4.25;;;13.90;95.20;;;;;;5017247;28;20048;-73
2023/10/26 12:05:23;;;;;;;7.65;4.78;;;13.90;95.00;;;;;;5018765;28;20064;-72
2023/10/26 12:07:49;;;;;;;7.38;4.88;;;14.00;94.90;;;;;;5018513;28;20038;-73
2023/10/26 12:10:17;;;;;;;8.57;4.95;;;14.00;94.60;;;;;;5019893;28;20462;-73
2023/10/26 12:12:44;;;;;;;9.15;5.50;;;14.00;94.80;;;;;;5015598;28;20505;-74
2023/10/26 12:15:10;;;;;;;9.43;6.38;;;14.00;94.90;;;;;;5017067;28;20034;-73
2023/10/26 12:17:36;;;;;;;9.80;5.97;;;14.00;94.70;;;;;;5017946;28;20542;-73
2023/10/26 12:20:03;;;;;;;9.75;6.60;;;14.00;94.70;;;;;;5012002;28;20411;-72
2023/10/26 12:22:29;;;;;;;9.13;6.65;;;14.00;95.00;;;;;;5014910;28;20103;-73
2023/10/26 12:24:55;;;;;;;9.80;6.75;;;14.10;94.90;;;;;;5012153;28;20637;-73
2023/10/26 12:27:21;;;;;;;13.18;8.13;;;14.10;94.50;;;;;;5011861;28;20171;-72
2023/10/26 12:29:47;;;;;;;9.35;7.20;;;14.20;94.70;;;;;;5016022;28;20046;-74
2023/10/26 12:32:14;;;;;;;12.85;7.72;;;14.30;94.80;;;;;;5014387;28;20475;-72
2023/10/26 12:34:40;;;;;;;10.13;6.60;;;14.40;94.60;;;;;;5019202;28;20282;-73
2023/10/26 12:37:06;;;;;;;13.85;7.40;;;14.50;94.40;;;;;;5015505;28;20037;-72